KBAZ

Details ICAO KBAZ
Name NEW BRAUNFELS MUNI
Region United States
Timezone America/Chicago (UTC-6.0)
Plans Departing 11
Arriving 3
Stats Elevation 650 ft / 198 m (AMSL)
Location 29.704493° -98.042224°
Runways 2
Magnetic Variation 4.018° E
Sunrise 2017-12-12 13:19:31 UTC / 2017-12-12 07:19:31 Local
Sunset 2017-12-12 23:35:23 UTC / 2017-12-12 17:35:23 Local
Advertisement - Login to hide

Runways

ID Width Length Bearing (true) Bearing (mag) Surface Threshold Offset Overrun Length
13 100 ft / 30 m 5,356 ft / 1,633 m 135.87° 131.85° Asphalt 0 ft / 0 m 0 ft / 0 m
17 100 ft / 30 m 5,382 ft / 1,640 m 180.71° 176.69° Asphalt 512 ft / 156 m 0 ft / 0 m
31 100 ft / 30 m 5,356 ft / 1,633 m 315.88° 311.86° Asphalt 0 ft / 0 m 0 ft / 0 m
35 100 ft / 30 m 5,382 ft / 1,640 m 0.71° 356.69° Asphalt 0 ft / 0 m 0 ft / 0 m

Map

Weather


0- 5 10 15 20 25 30 35+ Temperature / ° C

Clouds and Precipitation
Forecast for 2017-12-13 00:00 UTC. Updated an hour ago

Ground ~20,000 ft ~40,000 ft Winds

METAR

KBAZ 122351Z 35007KT 10SM CLR 11/M01 A3026 RMK AO2 SLP244 T01111011 10189 20111 56009

TAF

Not found

Frequencies

Recorded 119.32 MHz ASOS
Clearance 134.75 MHz CLNC DEL
Departure 125.70 MHz SAN ANTONIO DEP
Unicom 122.70 MHz CTAF/UNICOM
Approach 124.45 MHz SAN ANTONIO APP
Warning: Do not use this data for real-world aviation or navigation. No guarantee of current accuracy is given.